METAR UND TAF INFORMATION
LQSA 240000Z VRB01KT CAVOK 18/16 Q1020

 FLUGHAFENKARTE

 RUNWAY INFORMATION
Runway 12 Runway length 8666 ft Runway width 150 ft
Runway elevation 1643 ft Runway displaced threshold 333 ft Runway heading 117
Runway 30 Runway length 8666 ft Runway width 150 ft
Runway elevation 1690 ft Runway displaced threshold 1666 ft Runway heading 297

 AIRPORT FREQUENCIES
Type APP Name APP Frequency 136.45 MHZ
Type GCA Name GCA Frequency 119.4 MHZ
Type GND Name GND Frequency 121.9 MHZ
Type TWR Name TWR Frequency 118.25 MHZ

 AIRPORT NEAR NAVIGATION AIDS
Type NDB Name Sarajevo Frequency 436 KHZ
Type VOR-DME Name Sarajevo Frequency 116700 KHZ
Type NDB Name Kobiljaca Frequency 358 KHZ
Type VORTAC Name Sarajevo Frequency 108850 KHZ